CYTZ/YTZ METAR and TAF weather

Enter ICAO airport designator
Station Type Date Time Source
CYTZ METAR 2022/12/10 02:00 UTC NOAA

CYTZ 100200Z AUTO 04014G22KT 9SM BKN031 M00/M06 A3041 RMK SLP304


Station Type Date Time Source
CYTZ Decoded METAR 2022/12/10 02:00 UTC NOAA

Toronto Island Airport Automated Reporting Station, Canada (CYTZ) 43-38N 079-24W
Dec 09, 2022 - 09:00 PM EST / 2022.12.10 0200 UTC
Wind: from the NE (040 degrees) at 16 MPH (14 KT) gusting to 25 MPH (22 KT):0
Visibility: 9 mile(s):0
Sky conditions: mostly cloudy
Temperature: 32 F (0 C)
Windchill: 21 F (-6 C):1
Dew Point: 21 F (-6 C)
Relative Humidity: 63%
Pressure (altimeter): 30.41 in. Hg (1029 hPa)
ob: CYTZ 100200Z AUTO 04014G22KT 9SM BKN031 M00/M06 A3041 RMK SLP304
cycle: 2

Station Type Date Time Source
CYTZ TAF 2022/12/10 02:51 UTC NOAA

TAF CYTZ 100141Z 1002/1102 06012KT P6SM SCT020
TEMPO 1002/1008 BKN020
FM100800 06012G22KT P6SM BKN020
FM101900 08015G25KT P6SM SCT020 SCT240
FM110100 08010G20KT P6SM SCT015 OVC040
TEMPO 1101/1102 P6SM -SN BKN015 OVC040
RMK FCST BASED ON AUTO OBS. NXT FCST BY 100800Z

Example: see airport list